Laramie Regional Airport
KLAR : now visible

Airfield :











YOU CAN JOIN US ON...

 
LOGIN :

Register | Disclaimer

   EN    FR    IT 

 









Legend :    VFR   Marginal VFR   IFR   Intensive IFR   Very Intensive IFR
Visi :
Ceiling :
>= 8 km
>= 3000ft
5 to 8 km
1000 to 3000 ft
1500m to 5 km
500 to 1000 ft
800 to 1500m
200 to 500 ft
< 800m
< 200 ft
Symbols :   Thunderstorms  Fog  Heavy snow  Heavy precipitations  Wind > 20 kt






- Airport Elevation : 7284 ft
- IATA code : LAR


KLAR - Laramie Regional

CURRENT METAR :
  • 200606Z AUTO 31021G25KT 5SM -SN BKN028 OVC042 02/M03 A2969 RMK AO2 P0000 T00171028

EXPIRED METARs :
  • 200553Z AUTO 33016G27KT 9SM -SN BKN034 OVC042 03/M04 A2968 RMK AO2 PK WND 32029/0454 UPE03SNB40 SLP968 P0000 60000 T00281039 10161 20022 51014
  • 200453Z AUTO 32022G32KT 9SM UP OVC033 02/M02 A2966 RMK AO2 PK WND 33035/0430 RAE34UPB46SNB34E46B48E52 SLP962 P0000 T00221022
  • 200446Z AUTO 32024G33KT 9SM UP BKN027 OVC035 03/M02 A2966 RMK AO2 PK WND 33035/0430 RAE34UPB46SNB34E46 P0000 T00281017
  • 200353Z AUTO 34018G36KT 10SM -RA BKN041 OVC048 04/00 A2966 RMK AO2 PK WND 33036/0347 RAB16 SLP962 P0000 T00440000

TAF KLAR
Valid from the 20 at 06:00 until the 21 at 06:00 UTC


200520Z 2006/2106 33018G35KT P6SM VCSH OVC035
TEMPO 2006/2009 2SM -SHSN OVC025
FM201000 31010KT 5SM BR VCSH OVC035
FM201200 30013KT P6SM OVC040
FM201800 35018G30KT P6SM BKN080
FM210100 01010KT P6SM BKN100
KZDV FIR / North America



MET'MAP, your aeronautical weather chart ! - Copyright ORBIFLY December 2007 - Disclaimer

ORBIFLY MET'MAP TEAM :

Programming & Development : Alexandra Zaïnal
Original concept : Baudouin d'Aumeries
Technical & hardware support : Manuel Goepfert
Assistance : Marc-Olivier Méhu

Contact : metmap@orbifly.com




SOURCES & CREDITS :

   NOAA       Earth
Advisory